sensor_id;sensor_type;location;lat;lon;timestamp;P1;durP1;ratioP1;P2;durP2;ratioP2
45236;SDS011;30973;51.442;3.580;2023-05-09T00:00:40;14.07;;;10.25;;
45236;SDS011;30973;51.442;3.580;2023-05-09T00:03:08;16.20;;;10.48;;
45236;SDS011;30973;51.442;3.580;2023-05-09T00:05:34;16.38;;;10.57;;
45236;SDS011;30973;51.442;3.580;2023-05-09T00:08:01;16.67;;;10.57;;
45236;SDS011;30973;51.442;3.580;2023-05-09T00:10:27;17.60;;;11.00;;
45236;SDS011;30973;51.442;3.580;2023-05-09T00:12:54;16.50;;;11.25;;
45236;SDS011;30973;51.442;3.580;2023-05-09T00:15:22;16.63;;;10.02;;
45236;SDS011;30973;51.442;3.580;2023-05-09T00:17:50;14.45;;;10.50;;
45236;SDS011;30973;51.442;3.580;2023-05-09T00:20:17;16.13;;;10.52;;
45236;SDS011;30973;51.442;3.580;2023-05-09T00:22:43;18.17;;;10.80;;
45236;SDS011;30973;51.442;3.580;2023-05-09T00:25:10;17.52;;;10.35;;
45236;SDS011;30973;51.442;3.580;2023-05-09T00:27:37;13.55;;;10.35;;
45236;SDS011;30973;51.442;3.580;2023-05-09T00:30:04;17.50;;;11.48;;
45236;SDS011;30973;51.442;3.580;2023-05-09T00:32:31;17.10;;;10.65;;
45236;SDS011;30973;51.442;3.580;2023-05-09T00:34:58;17.88;;;11.20;;
45236;SDS011;30973;51.442;3.580;2023-05-09T00:37:25;15.82;;;10.57;;
45236;SDS011;30973;51.442;3.580;2023-05-09T00:39:52;14.82;;;10.48;;
45236;SDS011;30973;51.442;3.580;2023-05-09T00:42:18;17.25;;;10.60;;
45236;SDS011;30973;51.442;3.580;2023-05-09T00:44:45;16.65;;;10.60;;
45236;SDS011;30973;51.442;3.580;2023-05-09T00:47:11;17.00;;;10.63;;
45236;SDS011;30973;51.442;3.580;2023-05-09T00:49:38;17.50;;;11.25;;
45236;SDS011;30973;51.442;3.580;2023-05-09T00:52:04;16.20;;;10.30;;
45236;SDS011;30973;51.442;3.580;2023-05-09T00:54:31;18.20;;;10.35;;
45236;SDS011;30973;51.442;3.580;2023-05-09T00:56:58;18.05;;;10.82;;
45236;SDS011;30973;51.442;3.580;2023-05-09T00:59:25;18.63;;;10.50;;
45236;SDS011;30973;51.442;3.580;2023-05-09T01:01:52;16.67;;;9.98;;
45236;SDS011;30973;51.442;3.580;2023-05-09T01:04:19;16.55;;;10.52;;
45236;SDS011;30973;51.442;3.580;2023-05-09T01:09:34;15.55;;;9.68;;
45236;SDS011;30973;51.442;3.580;2023-05-09T01:12:09;13.95;;;9.07;;
45236;SDS011;30973;51.442;3.580;2023-05-09T01:14:43;18.40;;;10.43;;
45236;SDS011;30973;51.442;3.580;2023-05-09T01:17:19;17.88;;;11.60;;
45236;SDS011;30973;51.442;3.580;2023-05-09T01:22:17;19.30;;;12.07;;
45236;SDS011;30973;51.442;3.580;2023-05-09T01:24:56;16.90;;;11.52;;
45236;SDS011;30973;51.442;3.580;2023-05-09T01:30:02;19.85;;;11.48;;
45236;SDS011;30973;51.442;3.580;2023-05-09T01:32:29;19.17;;;11.77;;
45236;SDS011;30973;51.442;3.580;2023-05-09T01:34:58;17.33;;;12.43;;
45236;SDS011;30973;51.442;3.580;2023-05-09T01:37:29;15.25;;;11.05;;
45236;SDS011;30973;51.442;3.580;2023-05-09T01:40:02;18.15;;;11.30;;
45236;SDS011;30973;51.442;3.580;2023-05-09T01:42:36;17.35;;;10.63;;
45236;SDS011;30973;51.442;3.580;2023-05-09T01:45:03;16.95;;;11.65;;
45236;SDS011;30973;51.442;3.580;2023-05-09T01:47:30;14.68;;;11.20;;
45236;SDS011;30973;51.442;3.580;2023-05-09T01:49:57;16.77;;;11.20;;
45236;SDS011;30973;51.442;3.580;2023-05-09T01:52:27;14.52;;;10.75;;
45236;SDS011;30973;51.442;3.580;2023-05-09T01:54:54;13.98;;;10.23;;
45236;SDS011;30973;51.442;3.580;2023-05-09T01:57:21;16.80;;;11.10;;
45236;SDS011;30973;51.442;3.580;2023-05-09T01:59:49;13.80;;;10.52;;
45236;SDS011;30973;51.442;3.580;2023-05-09T02:02:16;16.30;;;10.57;;
45236;SDS011;30973;51.442;3.580;2023-05-09T02:04:43;14.80;;;10.55;;
45236;SDS011;30973;51.442;3.580;2023-05-09T02:07:11;20.52;;;11.07;;
45236;SDS011;30973;51.442;3.580;2023-05-09T02:09:38;15.50;;;10.05;;
45236;SDS011;30973;51.442;3.580;2023-05-09T02:12:04;15.63;;;10.23;;
45236;SDS011;30973;51.442;3.580;2023-05-09T02:14:31;14.32;;;9.77;;
45236;SDS011;30973;51.442;3.580;2023-05-09T02:16:59;16.70;;;9.18;;
45236;SDS011;30973;51.442;3.580;2023-05-09T02:19:32;14.63;;;9.32;;
45236;SDS011;30973;51.442;3.580;2023-05-09T02:21:59;17.30;;;9.73;;
45236;SDS011;30973;51.442;3.580;2023-05-09T02:24:26;14.18;;;9.57;;
45236;SDS011;30973;51.442;3.580;2023-05-09T02:26:54;15.02;;;9.30;;
45236;SDS011;30973;51.442;3.580;2023-05-09T02:29:22;14.82;;;9.48;;
45236;SDS011;30973;51.442;3.580;2023-05-09T02:31:50;17.17;;;10.27;;
45236;SDS011;30973;51.442;3.580;2023-05-09T02:34:18;14.70;;;10.07;;
45236;SDS011;30973;51.442;3.580;2023-05-09T02:36:45;13.70;;;9.20;;
45236;SDS011;30973;51.442;3.580;2023-05-09T02:39:12;16.77;;;9.48;;
45236;SDS011;30973;51.442;3.580;2023-05-09T02:41:38;15.32;;;10.00;;
45236;SDS011;30973;51.442;3.580;2023-05-09T02:44:05;11.40;;;9.25;;
45236;SDS011;30973;51.442;3.580;2023-05-09T02:46:32;14.77;;;10.13;;
45236;SDS011;30973;51.442;3.580;2023-05-09T02:48:59;15.88;;;9.50;;
45236;SDS011;30973;51.442;3.580;2023-05-09T02:51:26;11.75;;;9.82;;
45236;SDS011;30973;51.442;3.580;2023-05-09T02:53:53;16.10;;;10.77;;
45236;SDS011;30973;51.442;3.580;2023-05-09T02:56:20;14.93;;;10.07;;
45236;SDS011;30973;51.442;3.580;2023-05-09T02:58:47;14.45;;;10.00;;
45236;SDS011;30973;51.442;3.580;2023-05-09T03:01:17;11.73;;;9.15;;
45236;SDS011;30973;51.442;3.580;2023-05-09T03:03:43;13.57;;;9.93;;
45236;SDS011;30973;51.442;3.580;2023-05-09T03:06:11;13.70;;;9.50;;
45236;SDS011;30973;51.442;3.580;2023-05-09T03:08:39;13.48;;;9.70;;
45236;SDS011;30973;51.442;3.580;2023-05-09T03:11:07;13.82;;;9.48;;
45236;SDS011;30973;51.442;3.580;2023-05-09T03:13:34;15.25;;;9.68;;
45236;SDS011;30973;51.442;3.580;2023-05-09T03:16:00;13.65;;;9.30;;
45236;SDS011;30973;51.442;3.580;2023-05-09T03:18:27;11.93;;;9.70;;
45236;SDS011;30973;51.442;3.580;2023-05-09T03:20:54;13.35;;;9.50;;
45236;SDS011;30973;51.442;3.580;2023-05-09T03:23:21;13.73;;;10.00;;
45236;SDS011;30973;51.442;3.580;2023-05-09T03:25:47;13.27;;;9.27;;
45236;SDS011;30973;51.442;3.580;2023-05-09T03:28:14;13.20;;;9.73;;
45236;SDS011;30973;51.442;3.580;2023-05-09T03:30:42;16.45;;;9.25;;
45236;SDS011;30973;51.442;3.580;2023-05-09T03:33:11;13.98;;;9.77;;
45236;SDS011;30973;51.442;3.580;2023-05-09T03:35:38;13.95;;;9.73;;
45236;SDS011;30973;51.442;3.580;2023-05-09T03:38:05;12.60;;;9.68;;
45236;SDS011;30973;51.442;3.580;2023-05-09T03:40:32;16.83;;;9.85;;
45236;SDS011;30973;51.442;3.580;2023-05-09T03:43:05;12.55;;;9.40;;
45236;SDS011;30973;51.442;3.580;2023-05-09T03:45:32;15.43;;;11.38;;
45236;SDS011;30973;51.442;3.580;2023-05-09T03:48:01;17.48;;;10.35;;
45236;SDS011;30973;51.442;3.580;2023-05-09T03:50:30;17.77;;;10.82;;
45236;SDS011;30973;51.442;3.580;2023-05-09T03:52:57;16.52;;;10.40;;
45236;SDS011;30973;51.442;3.580;2023-05-09T03:55:24;15.18;;;10.50;;
45236;SDS011;30973;51.442;3.580;2023-05-09T03:57:52;14.25;;;9.80;;
45236;SDS011;30973;51.442;3.580;2023-05-09T04:00:18;13.80;;;9.30;;
45236;SDS011;30973;51.442;3.580;2023-05-09T04:02:54;13.88;;;9.32;;
45236;SDS011;30973;51.442;3.580;2023-05-09T04:05:29;15.07;;;10.00;;
45236;SDS011;30973;51.442;3.580;2023-05-09T04:07:56;15.13;;;9.68;;
45236;SDS011;30973;51.442;3.580;2023-05-09T04:10:23;15.38;;;10.07;;
45236;SDS011;30973;51.442;3.580;2023-05-09T04:12:51;13.02;;;9.30;;
45236;SDS011;30973;51.442;3.580;2023-05-09T04:15:18;13.98;;;9.50;;
45236;SDS011;30973;51.442;3.580;2023-05-09T04:17:45;12.38;;;9.60;;
45236;SDS011;30973;51.442;3.580;2023-05-09T04:20:11;12.05;;;9.45;;
45236;SDS011;30973;51.442;3.580;2023-05-09T04:22:40;18.40;;;10.27;;
45236;SDS011;30973;51.442;3.580;2023-05-09T04:25:07;15.10;;;10.25;;
45236;SDS011;30973;51.442;3.580;2023-05-09T04:27:38;15.98;;;9.57;;
45236;SDS011;30973;51.442;3.580;2023-05-09T04:30:05;12.70;;;9.80;;
45236;SDS011;30973;51.442;3.580;2023-05-09T04:32:32;13.63;;;9.93;;
45236;SDS011;30973;51.442;3.580;2023-05-09T04:34:59;13.88;;;9.38;;
45236;SDS011;30973;51.442;3.580;2023-05-09T04:37:31;12.68;;;9.27;;
45236;SDS011;30973;51.442;3.580;2023-05-09T04:40:00;12.60;;;9.32;;
45236;SDS011;30973;51.442;3.580;2023-05-09T04:42:35;15.30;;;10.23;;
45236;SDS011;30973;51.442;3.580;2023-05-09T04:45:03;14.68;;;9.80;;
45236;SDS011;30973;51.442;3.580;2023-05-09T04:47:30;13.73;;;9.48;;
45236;SDS011;30973;51.442;3.580;2023-05-09T04:49:57;11.73;;;8.88;;
45236;SDS011;30973;51.442;3.580;2023-05-09T04:52:24;14.77;;;9.60;;
45236;SDS011;30973;51.442;3.580;2023-05-09T04:54:51;11.90;;;9.35;;
45236;SDS011;30973;51.442;3.580;2023-05-09T04:57:20;11.95;;;9.45;;
45236;SDS011;30973;51.442;3.580;2023-05-09T04:59:53;11.60;;;9.05;;
45236;SDS011;30973;51.442;3.580;2023-05-09T05:02:19;12.38;;;9.48;;
45236;SDS011;30973;51.442;3.580;2023-05-09T05:04:48;11.73;;;9.07;;
45236;SDS011;30973;51.442;3.580;2023-05-09T05:07:26;12.38;;;9.18;;
45236;SDS011;30973;51.442;3.580;2023-05-09T05:09:52;10.95;;;9.10;;
45236;SDS011;30973;51.442;3.580;2023-05-09T05:12:19;13.02;;;9.63;;
45236;SDS011;30973;51.442;3.580;2023-05-09T05:14:48;16.15;;;9.40;;
45236;SDS011;30973;51.442;3.580;2023-05-09T05:17:19;11.70;;;9.45;;
45236;SDS011;30973;51.442;3.580;2023-05-09T05:19:46;14.05;;;9.88;;
45236;SDS011;30973;51.442;3.580;2023-05-09T05:22:14;13.75;;;9.60;;
45236;SDS011;30973;51.442;3.580;2023-05-09T05:24:43;11.70;;;9.95;;
45236;SDS011;30973;51.442;3.580;2023-05-09T05:27:13;12.35;;;9.10;;
45236;SDS011;30973;51.442;3.580;2023-05-09T05:29:42;12.95;;;9.70;;
45236;SDS011;30973;51.442;3.580;2023-05-09T05:32:09;15.00;;;9.80;;
45236;SDS011;30973;51.442;3.580;2023-05-09T05:34:36;14.75;;;9.10;;
45236;SDS011;30973;51.442;3.580;2023-05-09T05:37:04;13.80;;;9.13;;
45236;SDS011;30973;51.442;3.580;2023-05-09T05:39:31;14.45;;;9.80;;
45236;SDS011;30973;51.442;3.580;2023-05-09T05:41:58;15.73;;;9.18;;
45236;SDS011;30973;51.442;3.580;2023-05-09T05:44:25;15.90;;;8.90;;
45236;SDS011;30973;51.442;3.580;2023-05-09T05:46:51;12.32;;;9.40;;
45236;SDS011;30973;51.442;3.580;2023-05-09T05:49:19;12.45;;;9.15;;
45236;SDS011;30973;51.442;3.580;2023-05-09T05:51:46;14.75;;;9.50;;
45236;SDS011;30973;51.442;3.580;2023-05-09T05:54:12;15.23;;;9.10;;
45236;SDS011;30973;51.442;3.580;2023-05-09T05:56:40;13.68;;;9.77;;
45236;SDS011;30973;51.442;3.580;2023-05-09T05:59:08;14.43;;;9.63;;
45236;SDS011;30973;51.442;3.580;2023-05-09T06:01:37;11.43;;;9.45;;
45236;SDS011;30973;51.442;3.580;2023-05-09T06:04:07;11.68;;;9.65;;
45236;SDS011;30973;51.442;3.580;2023-05-09T06:06:33;11.77;;;9.38;;
45236;SDS011;30973;51.442;3.580;2023-05-09T06:09:00;11.70;;;8.65;;
45236;SDS011;30973;51.442;3.580;2023-05-09T06:11:26;10.32;;;8.68;;
45236;SDS011;30973;51.442;3.580;2023-05-09T06:13:54;15.50;;;9.82;;
45236;SDS011;30973;51.442;3.580;2023-05-09T06:16:21;12.43;;;8.98;;
45236;SDS011;30973;51.442;3.580;2023-05-09T06:18:48;14.95;;;8.95;;
45236;SDS011;30973;51.442;3.580;2023-05-09T06:21:15;15.52;;;9.45;;
45236;SDS011;30973;51.442;3.580;2023-05-09T06:23:42;13.40;;;9.48;;
45236;SDS011;30973;51.442;3.580;2023-05-09T06:26:28;13.95;;;9.00;;
45236;SDS011;30973;51.442;3.580;2023-05-09T06:28:55;12.55;;;8.70;;
45236;SDS011;30973;51.442;3.580;2023-05-09T06:31:22;12.05;;;9.48;;
45236;SDS011;30973;51.442;3.580;2023-05-09T06:33:51;14.85;;;9.57;;
45236;SDS011;30973;51.442;3.580;2023-05-09T06:36:17;14.93;;;9.95;;
45236;SDS011;30973;51.442;3.580;2023-05-09T06:38:44;12.43;;;8.90;;
45236;SDS011;30973;51.442;3.580;2023-05-09T06:41:10;11.18;;;8.93;;
45236;SDS011;30973;51.442;3.580;2023-05-09T06:43:37;13.65;;;9.48;;
45236;SDS011;30973;51.442;3.580;2023-05-09T06:46:04;13.85;;;9.18;;
45236;SDS011;30973;51.442;3.580;2023-05-09T06:48:30;10.93;;;8.38;;
45236;SDS011;30973;51.442;3.580;2023-05-09T06:50:57;10.68;;;8.88;;
45236;SDS011;30973;51.442;3.580;2023-05-09T06:53:23;15.73;;;9.48;;
45236;SDS011;30973;51.442;3.580;2023-05-09T06:55:50;13.13;;;9.80;;
45236;SDS011;30973;51.442;3.580;2023-05-09T06:58:17;17.30;;;10.05;;
45236;SDS011;30973;51.442;3.580;2023-05-09T07:00:43;13.32;;;8.75;;
45236;SDS011;30973;51.442;3.580;2023-05-09T07:03:10;13.10;;;9.27;;
45236;SDS011;30973;51.442;3.580;2023-05-09T07:05:37;16.17;;;9.88;;
45236;SDS011;30973;51.442;3.580;2023-05-09T07:08:03;13.23;;;9.88;;
45236;SDS011;30973;51.442;3.580;2023-05-09T07:10:30;12.20;;;9.23;;
45236;SDS011;30973;51.442;3.580;2023-05-09T07:12:57;15.38;;;9.90;;
45236;SDS011;30973;51.442;3.580;2023-05-09T07:15:24;14.38;;;10.02;;
45236;SDS011;30973;51.442;3.580;2023-05-09T07:18:05;11.93;;;9.38;;
45236;SDS011;30973;51.442;3.580;2023-05-09T07:20:32;11.32;;;9.43;;
45236;SDS011;30973;51.442;3.580;2023-05-09T07:22:58;11.40;;;9.38;;
45236;SDS011;30973;51.442;3.580;2023-05-09T07:25:25;12.05;;;9.48;;
45236;SDS011;30973;51.442;3.580;2023-05-09T07:27:52;12.00;;;9.05;;
45236;SDS011;30973;51.442;3.580;2023-05-09T07:30:19;12.43;;;9.63;;
45236;SDS011;30973;51.442;3.580;2023-05-09T07:32:45;11.13;;;9.50;;
45236;SDS011;30973;51.442;3.580;2023-05-09T07:35:12;11.40;;;8.38;;
45236;SDS011;30973;51.442;3.580;2023-05-09T07:37:39;11.95;;;8.82;;
45236;SDS011;30973;51.442;3.580;2023-05-09T07:40:06;13.82;;;8.10;;
45236;SDS011;30973;51.442;3.580;2023-05-09T07:42:32;10.70;;;8.73;;
45236;SDS011;30973;51.442;3.580;2023-05-09T07:44:59;12.05;;;8.20;;
45236;SDS011;30973;51.442;3.580;2023-05-09T07:47:26;9.82;;;8.05;;
45236;SDS011;30973;51.442;3.580;2023-05-09T07:49:53;11.85;;;8.15;;
45236;SDS011;30973;51.442;3.580;2023-05-09T07:52:21;9.50;;;7.82;;
45236;SDS011;30973;51.442;3.580;2023-05-09T07:54:47;11.25;;;7.32;;
45236;SDS011;30973;51.442;3.580;2023-05-09T07:57:14;9.35;;;7.00;;
45236;SDS011;30973;51.442;3.580;2023-05-09T07:59:41;9.55;;;7.00;;
45236;SDS011;30973;51.442;3.580;2023-05-09T08:02:08;9.38;;;7.18;;
45236;SDS011;30973;51.442;3.580;2023-05-09T08:04:35;10.07;;;6.93;;
45236;SDS011;30973;51.442;3.580;2023-05-09T08:07:03;6.78;;;6.07;;
45236;SDS011;30973;51.442;3.580;2023-05-09T08:09:30;10.68;;;6.75;;
45236;SDS011;30973;51.442;3.580;2023-05-09T08:11:57;9.35;;;6.95;;
45236;SDS011;30973;51.442;3.580;2023-05-09T08:14:23;7.65;;;6.43;;
45236;SDS011;30973;51.442;3.580;2023-05-09T08:16:50;9.68;;;6.63;;
45236;SDS011;30973;51.442;3.580;2023-05-09T08:19:17;8.85;;;6.65;;
45236;SDS011;30973;51.442;3.580;2023-05-09T08:21:43;8.25;;;6.50;;
45236;SDS011;30973;51.442;3.580;2023-05-09T08:24:10;7.22;;;6.18;;
45236;SDS011;30973;51.442;3.580;2023-05-09T08:26:37;8.63;;;6.07;;
45236;SDS011;30973;51.442;3.580;2023-05-09T08:29:03;8.35;;;5.82;;
45236;SDS011;30973;51.442;3.580;2023-05-09T08:31:30;8.57;;;6.25;;
45236;SDS011;30973;51.442;3.580;2023-05-09T08:33:56;6.60;;;5.20;;
45236;SDS011;30973;51.442;3.580;2023-05-09T08:36:23;7.55;;;5.57;;
45236;SDS011;30973;51.442;3.580;2023-05-09T08:38:50;9.45;;;6.63;;
45236;SDS011;30973;51.442;3.580;2023-05-09T08:41:17;8.95;;;5.97;;
45236;SDS011;30973;51.442;3.580;2023-05-09T08:43:44;7.20;;;5.50;;
45236;SDS011;30973;51.442;3.580;2023-05-09T08:46:11;7.25;;;5.07;;
45236;SDS011;30973;51.442;3.580;2023-05-09T08:48:38;5.35;;;4.85;;
45236;SDS011;30973;51.442;3.580;2023-05-09T08:51:06;7.00;;;5.63;;
45236;SDS011;30973;51.442;3.580;2023-05-09T08:53:32;6.10;;;5.28;;
45236;SDS011;30973;51.442;3.580;2023-05-09T08:55:59;8.27;;;4.93;;
45236;SDS011;30973;51.442;3.580;2023-05-09T08:58:29;7.88;;;5.45;;
45236;SDS011;30973;51.442;3.580;2023-05-09T09:00:55;6.78;;;4.70;;
45236;SDS011;30973;51.442;3.580;2023-05-09T09:03:23;8.30;;;4.85;;
45236;SDS011;30973;51.442;3.580;2023-05-09T09:05:51;7.25;;;5.00;;
45236;SDS011;30973;51.442;3.580;2023-05-09T09:08:19;7.00;;;5.20;;
45236;SDS011;30973;51.442;3.580;2023-05-09T09:10:46;5.30;;;4.70;;
45236;SDS011;30973;51.442;3.580;2023-05-09T09:13:14;5.22;;;4.72;;
45236;SDS011;30973;51.442;3.580;2023-05-09T09:15:42;7.35;;;4.65;;
45236;SDS011;30973;51.442;3.580;2023-05-09T09:18:15;7.68;;;5.15;;
45236;SDS011;30973;51.442;3.580;2023-05-09T09:20:52;5.05;;;4.53;;
45236;SDS011;30973;51.442;3.580;2023-05-09T09:23:21;5.85;;;4.20;;
45236;SDS011;30973;51.442;3.580;2023-05-09T09:25:56;7.70;;;4.53;;
45236;SDS011;30973;51.442;3.580;2023-05-09T09:28:25;7.03;;;4.78;;
45236;SDS011;30973;51.442;3.580;2023-05-09T09:30:51;8.13;;;5.30;;
45236;SDS011;30973;51.442;3.580;2023-05-09T09:33:19;6.75;;;4.75;;
45236;SDS011;30973;51.442;3.580;2023-05-09T09:35:49;10.30;;;4.40;;
45236;SDS011;30973;51.442;3.580;2023-05-09T09:38:17;5.93;;;4.20;;
45236;SDS011;30973;51.442;3.580;2023-05-09T09:43:17;5.95;;;3.95;;
45236;SDS011;30973;51.442;3.580;2023-05-09T09:45:47;6.43;;;4.05;;
45236;SDS011;30973;51.442;3.580;2023-05-09T09:48:14;5.78;;;3.90;;
45236;SDS011;30973;51.442;3.580;2023-05-09T09:50:40;7.03;;;4.50;;
45236;SDS011;30973;51.442;3.580;2023-05-09T09:53:07;7.10;;;3.50;;
45236;SDS011;30973;51.442;3.580;2023-05-09T09:55:34;6.60;;;3.47;;
45236;SDS011;30973;51.442;3.580;2023-05-09T09:58:01;8.30;;;3.90;;
45236;SDS011;30973;51.442;3.580;2023-05-09T10:00:27;6.28;;;3.67;;
45236;SDS011;30973;51.442;3.580;2023-05-09T10:02:56;3.85;;;3.05;;
45236;SDS011;30973;51.442;3.580;2023-05-09T10:05:27;8.77;;;4.03;;
45236;SDS011;30973;51.442;3.580;2023-05-09T10:08:01;5.38;;;2.92;;
45236;SDS011;30973;51.442;3.580;2023-05-09T10:10:28;5.80;;;3.20;;
45236;SDS011;30973;51.442;3.580;2023-05-09T10:12:56;10.05;;;3.38;;
45236;SDS011;30973;51.442;3.580;2023-05-09T10:15:27;5.18;;;3.00;;
45236;SDS011;30973;51.442;3.580;2023-05-09T10:17:59;5.97;;;3.78;;
45236;SDS011;30973;51.442;3.580;2023-05-09T10:20:26;6.30;;;3.33;;
45236;SDS011;30973;51.442;3.580;2023-05-09T10:22:55;4.50;;;3.15;;
45236;SDS011;30973;51.442;3.580;2023-05-09T10:28:14;3.85;;;2.53;;
45236;SDS011;30973;51.442;3.580;2023-05-09T10:30:55;6.90;;;2.78;;
45236;SDS011;30973;51.442;3.580;2023-05-09T10:33:25;6.55;;;2.75;;
45236;SDS011;30973;51.442;3.580;2023-05-09T10:35:53;5.88;;;2.80;;
45236;SDS011;30973;51.442;3.580;2023-05-09T10:38:21;3.03;;;2.63;;
45236;SDS011;30973;51.442;3.580;2023-05-09T10:40:49;3.58;;;2.70;;
45236;SDS011;30973;51.442;3.580;2023-05-09T10:43:16;4.40;;;2.75;;
45236;SDS011;30973;51.442;3.580;2023-05-09T10:45:43;3.22;;;2.60;;
45236;SDS011;30973;51.442;3.580;2023-05-09T10:48:09;4.82;;;2.65;;
45236;SDS011;30973;51.442;3.580;2023-05-09T10:50:36;3.28;;;2.58;;
45236;SDS011;30973;51.442;3.580;2023-05-09T10:53:06;2.88;;;1.77;;
45236;SDS011;30973;51.442;3.580;2023-05-09T11:00:49;3.33;;;2.20;;
45236;SDS011;30973;51.442;3.580;2023-05-09T11:03:16;5.07;;;2.60;;
45236;SDS011;30973;51.442;3.580;2023-05-09T11:05:46;4.80;;;2.60;;
45236;SDS011;30973;51.442;3.580;2023-05-09T11:10:42;5.28;;;2.45;;
45236;SDS011;30973;51.442;3.580;2023-05-09T11:13:09;3.60;;;2.40;;
45236;SDS011;30973;51.442;3.580;2023-05-09T11:15:47;5.97;;;2.50;;
45236;SDS011;30973;51.442;3.580;2023-05-09T11:18:15;5.10;;;2.45;;
45236;SDS011;30973;51.442;3.580;2023-05-09T11:20:44;7.28;;;2.63;;
45236;SDS011;30973;51.442;3.580;2023-05-09T11:23:14;4.88;;;2.38;;
45236;SDS011;30973;51.442;3.580;2023-05-09T11:25:44;5.95;;;2.47;;
45236;SDS011;30973;51.442;3.580;2023-05-09T11:28:11;2.83;;;2.20;;
45236;SDS011;30973;51.442;3.580;2023-05-09T11:30:50;7.20;;;2.03;;
45236;SDS011;30973;51.442;3.580;2023-05-09T11:33:22;3.22;;;1.80;;
45236;SDS011;30973;51.442;3.580;2023-05-09T11:36:13;3.05;;;1.88;;
45236;SDS011;30973;51.442;3.580;2023-05-09T11:38:40;3.47;;;1.85;;
45236;SDS011;30973;51.442;3.580;2023-05-09T11:41:08;2.80;;;1.75;;
45236;SDS011;30973;51.442;3.580;2023-05-09T11:43:37;5.45;;;2.22;;
45236;SDS011;30973;51.442;3.580;2023-05-09T11:46:04;3.92;;;2.40;;
45236;SDS011;30973;51.442;3.580;2023-05-09T11:48:40;3.83;;;2.50;;
45236;SDS011;30973;51.442;3.580;2023-05-09T11:51:14;2.90;;;1.83;;
45236;SDS011;30973;51.442;3.580;2023-05-09T11:53:42;3.25;;;1.90;;
45236;SDS011;30973;51.442;3.580;2023-05-09T11:56:18;5.18;;;2.45;;
45236;SDS011;30973;51.442;3.580;2023-05-09T11:58:45;4.07;;;2.55;;
45236;SDS011;30973;51.442;3.580;2023-05-09T12:01:15;3.28;;;2.40;;
45236;SDS011;30973;51.442;3.580;2023-05-09T12:03:42;4.35;;;2.90;;
45236;SDS011;30973;51.442;3.580;2023-05-09T12:06:13;5.30;;;3.90;;
45236;SDS011;30973;51.442;3.580;2023-05-09T12:08:40;4.53;;;3.42;;
45236;SDS011;30973;51.442;3.580;2023-05-09T12:11:07;9.18;;;5.93;;
45236;SDS011;30973;51.442;3.580;2023-05-09T12:13:34;6.20;;;3.22;;
45236;SDS011;30973;51.442;3.580;2023-05-09T12:16:00;3.53;;;2.50;;
45236;SDS011;30973;51.442;3.580;2023-05-09T12:18:27;5.28;;;2.40;;
45236;SDS011;30973;51.442;3.580;2023-05-09T12:20:54;5.13;;;2.47;;
45236;SDS011;30973;51.442;3.580;2023-05-09T12:23:20;4.93;;;2.80;;
45236;SDS011;30973;51.442;3.580;2023-05-09T12:25:51;3.75;;;2.25;;
45236;SDS011;30973;51.442;3.580;2023-05-09T12:28:19;4.85;;;2.60;;
45236;SDS011;30973;51.442;3.580;2023-05-09T12:30:46;5.13;;;2.53;;
45236;SDS011;30973;51.442;3.580;2023-05-09T12:33:12;2.95;;;2.40;;
45236;SDS011;30973;51.442;3.580;2023-05-09T12:35:39;3.75;;;2.80;;
45236;SDS011;30973;51.442;3.580;2023-05-09T12:38:12;5.30;;;3.40;;
45236;SDS011;30973;51.442;3.580;2023-05-09T12:40:39;5.13;;;3.30;;
45236;SDS011;30973;51.442;3.580;2023-05-09T12:43:06;5.10;;;3.20;;
45236;SDS011;30973;51.442;3.580;2023-05-09T12:45:33;8.85;;;3.60;;
45236;SDS011;30973;51.442;3.580;2023-05-09T12:47:59;5.65;;;3.17;;
45236;SDS011;30973;51.442;3.580;2023-05-09T12:50:31;3.97;;;2.75;;
45236;SDS011;30973;51.442;3.580;2023-05-09T12:53:00;4.28;;;3.00;;
45236;SDS011;30973;51.442;3.580;2023-05-09T12:55:28;5.00;;;3.60;;
45236;SDS011;30973;51.442;3.580;2023-05-09T12:57:59;5.20;;;3.35;;
45236;SDS011;30973;51.442;3.580;2023-05-09T13:00:26;5.22;;;3.40;;
45236;SDS011;30973;51.442;3.580;2023-05-09T13:02:53;4.20;;;3.30;;
45236;SDS011;30973;51.442;3.580;2023-05-09T13:05:20;5.18;;;3.63;;
45236;SDS011;30973;51.442;3.580;2023-05-09T13:07:48;5.70;;;3.58;;
45236;SDS011;30973;51.442;3.580;2023-05-09T13:12:43;8.73;;;4.13;;
45236;SDS011;30973;51.442;3.580;2023-05-09T13:15:10;6.90;;;4.22;;
45236;SDS011;30973;51.442;3.580;2023-05-09T13:17:37;6.53;;;4.03;;
45236;SDS011;30973;51.442;3.580;2023-05-09T13:20:04;6.72;;;4.70;;
45236;SDS011;30973;51.442;3.580;2023-05-09T13:22:31;7.68;;;4.05;;
45236;SDS011;30973;51.442;3.580;2023-05-09T13:24:58;4.55;;;3.17;;
45236;SDS011;30973;51.442;3.580;2023-05-09T13:27:24;8.00;;;3.60;;
45236;SDS011;30973;51.442;3.580;2023-05-09T13:29:53;4.95;;;3.33;;
45236;SDS011;30973;51.442;3.580;2023-05-09T13:32:19;6.28;;;3.47;;
45236;SDS011;30973;51.442;3.580;2023-05-09T13:34:46;6.65;;;3.72;;
45236;SDS011;30973;51.442;3.580;2023-05-09T13:37:13;5.45;;;3.30;;
45236;SDS011;30973;51.442;3.580;2023-05-09T13:39:39;8.32;;;3.30;;
45236;SDS011;30973;51.442;3.580;2023-05-09T13:42:06;5.07;;;3.05;;
45236;SDS011;30973;51.442;3.580;2023-05-09T13:44:32;6.68;;;3.42;;
45236;SDS011;30973;51.442;3.580;2023-05-09T13:46:59;7.78;;;3.80;;
45236;SDS011;30973;51.442;3.580;2023-05-09T13:49:26;4.78;;;3.45;;
45236;SDS011;30973;51.442;3.580;2023-05-09T13:51:55;5.18;;;3.50;;
45236;SDS011;30973;51.442;3.580;2023-05-09T13:54:22;6.80;;;3.55;;
45236;SDS011;30973;51.442;3.580;2023-05-09T13:56:49;8.55;;;4.55;;
45236;SDS011;30973;51.442;3.580;2023-05-09T13:59:16;9.38;;;3.83;;
45236;SDS011;30973;51.442;3.580;2023-05-09T14:01:43;7.72;;;3.90;;
45236;SDS011;30973;51.442;3.580;2023-05-09T14:04:09;7.03;;;3.92;;
45236;SDS011;30973;51.442;3.580;2023-05-09T14:06:36;8.98;;;4.05;;
45236;SDS011;30973;51.442;3.580;2023-05-09T14:09:03;10.88;;;4.22;;
45236;SDS011;30973;51.442;3.580;2023-05-09T14:11:29;7.50;;;3.95;;
45236;SDS011;30973;51.442;3.580;2023-05-09T14:13:56;6.25;;;4.00;;
45236;SDS011;30973;51.442;3.580;2023-05-09T14:16:23;8.00;;;3.83;;
45236;SDS011;30973;51.442;3.580;2023-05-09T14:18:49;6.95;;;3.70;;
45236;SDS011;30973;51.442;3.580;2023-05-09T14:21:16;6.30;;;3.83;;
45236;SDS011;30973;51.442;3.580;2023-05-09T14:23:43;7.45;;;3.80;;
45236;SDS011;30973;51.442;3.580;2023-05-09T14:26:09;7.10;;;4.07;;
45236;SDS011;30973;51.442;3.580;2023-05-09T14:28:36;7.05;;;4.20;;
45236;SDS011;30973;51.442;3.580;2023-05-09T14:31:03;7.65;;;4.25;;
45236;SDS011;30973;51.442;3.580;2023-05-09T14:33:30;8.10;;;4.20;;
45236;SDS011;30973;51.442;3.580;2023-05-09T14:35:57;8.70;;;4.40;;
45236;SDS011;30973;51.442;3.580;2023-05-09T14:38:23;7.22;;;4.05;;
45236;SDS011;30973;51.442;3.580;2023-05-09T14:40:50;9.75;;;5.15;;
45236;SDS011;30973;51.442;3.580;2023-05-09T14:43:17;7.55;;;4.47;;
45236;SDS011;30973;51.442;3.580;2023-05-09T14:45:44;8.20;;;4.55;;
45236;SDS011;30973;51.442;3.580;2023-05-09T14:48:10;10.10;;;5.25;;
45236;SDS011;30973;51.442;3.580;2023-05-09T14:50:41;7.63;;;4.60;;
45236;SDS011;30973;51.442;3.580;2023-05-09T14:53:07;9.77;;;4.82;;
45236;SDS011;30973;51.442;3.580;2023-05-09T14:55:34;9.88;;;5.78;;
45236;SDS011;30973;51.442;3.580;2023-05-09T14:58:01;7.07;;;4.68;;
45236;SDS011;30973;51.442;3.580;2023-05-09T15:00:28;8.52;;;4.88;;
45236;SDS011;30973;51.442;3.580;2023-05-09T15:02:55;6.28;;;4.55;;
45236;SDS011;30973;51.442;3.580;2023-05-09T15:05:22;9.00;;;4.88;;